PWSweather.com
Personal Weather Stations
Station Observations
KILMORRI1
Goose Lake, Morris, IL 60450

Goose LakeMorris, IL 60450

Lat: 41.34, Lon: -88.3

Elevation: 523

Station Type:

www.gooselakeweather.com

High Low Average
Temperature 36.7°F2.6°C 16.3°F-8.7°C 28.9°F-1.7°C
Dew Point 17.5°F-8.1°C 2.8°F-16.2°C 11.8°F-11.2°C
Winds 10.4 mph 16.7 kmh Calm Calm 3.0 mph SSE4.8 kmh SSE
Wind Gusts 12.7 mph20.4 kmh -- 4.0 mph6.4 kmh
Humidity 85% 28% 52%
Pressure 30.53 in1033.9 mb 30.25 in1024.4 mb -
Precipitation 0.00 in0.0 mm - -
Hour Temp Dew Point Humidity Winds Wind Gusts Pressure Precip Precip Rate Daily Precip Total
12:00 AM 26.0°F-3.3°C 12.0°F-11.1°C 55% Calm Calm -- 30.50 in1032.8 mb - 0.00 in0.0 mm 0.00 in0.0 mm
12:10 AM 25.8°F-3.4°C 12.3°F-10.9°C 56% Calm Calm -- 30.51 in1033.2 mb - 0.00 in0.0 mm 0.00 in0.0 mm
12:20 AM 25.8°F-3.4°C 11.8°F-11.2°C 55% 1.2 mph E1.9 kmh E 2.3 mph3.7 kmh 30.51 in1033.2 mb - 0.00 in0.0 mm 0.00 in0.0 mm
12:30 AM 25.7°F-3.5°C 11.3°F-11.5°C 54% Calm Calm -- 30.51 in1033.2 mb - 0.00 in0.0 mm 0.00 in0.0 mm
12:40 AM 25.6°F-3.6°C 11.7°F-11.3°C 55% Calm Calm -- 30.51 in1033.2 mb - 0.00 in0.0 mm 0.00 in0.0 mm
12:50 AM 25.5°F-3.6°C 11.6°F-11.3°C 55% Calm Calm 1.2 mph1.9 kmh 30.51 in1033.2 mb - 0.00 in0.0 mm 0.00 in0.0 mm
01:00 AM 25.3°F-3.7°C 11.8°F-11.2°C 56% Calm Calm -- 30.51 in1033.2 mb - 0.00 in0.0 mm 0.00 in0.0 mm
01:10 AM 25.3°F-3.7°C 12.6°F-10.8°C 58% 1.2 mph E1.9 kmh E 2.3 mph3.7 kmh 30.51 in1033.2 mb - 0.00 in0.0 mm 0.00 in0.0 mm
01:20 AM 25.0°F-3.9°C 12.3°F-10.9°C 58% 1.2 mph E1.9 kmh E 2.3 mph3.7 kmh 30.50 in1032.8 mb - 0.00 in0.0 mm 0.00 in0.0 mm
01:30 AM 24.6°F-4.1°C 12.7°F-10.7°C 60% 2.3 mph E3.7 kmh E 2.3 mph3.7 kmh 30.50 in1032.8 mb - 0.00 in0.0 mm 0.00 in0.0 mm
01:40 AM 24.2°F-4.3°C 14.8°F-9.6°C 67% 1.2 mph E1.9 kmh E 2.3 mph3.7 kmh 30.50 in1032.8 mb - 0.00 in0.0 mm 0.00 in0.0 mm
01:50 AM 23.9°F-4.5°C 13.1°F-10.5°C 63% 1.2 mph E1.9 kmh E 2.3 mph3.7 kmh 30.50 in1032.8 mb - 0.00 in0.0 mm 0.00 in0.0 mm
02:00 AM 23.6°F-4.7°C 12.1°F-11.1°C 61% 1.2 mph E1.9 kmh E 1.2 mph1.9 kmh 30.50 in1032.8 mb - 0.00 in0.0 mm 0.00 in0.0 mm
02:10 AM 23.4°F-4.8°C 14.0°F-10.0°C 67% Calm Calm -- 30.50 in1032.8 mb - 0.00 in0.0 mm 0.00 in0.0 mm
02:20 AM 23.2°F-4.9°C 13.5°F-10.3°C 66% Calm Calm -- 30.50 in1032.8 mb - 0.00 in0.0 mm 0.00 in0.0 mm
02:30 AM 22.9°F-5.1°C 12.9°F-10.6°C 65% Calm Calm -- 30.50 in1032.8 mb - 0.00 in0.0 mm 0.00 in0.0 mm
02:40 AM 22.1°F-5.5°C 13.4°F-10.3°C 69% Calm Calm -- 30.50 in1032.8 mb - 0.00 in0.0 mm 0.00 in0.0 mm
02:50 AM 21.7°F-5.7°C 13.4°F-10.3°C 70% Calm Calm -- 30.50 in1032.8 mb - 0.00 in0.0 mm 0.00 in0.0 mm
03:00 AM 21.1°F-6.1°C 14.1°F-9.9°C 74% 1.2 mph E1.9 kmh E 1.2 mph1.9 kmh 30.50 in1032.8 mb - 0.00 in0.0 mm 0.00 in0.0 mm
03:10 AM 20.9°F-6.2°C 13.3°F-10.4°C 72% Calm Calm 1.2 mph1.9 kmh 30.49 in1032.5 mb - 0.00 in0.0 mm 0.00 in0.0 mm
03:20 AM 19.9°F-6.7°C 12.3°F-10.9°C 72% Calm Calm 1.2 mph1.9 kmh 30.49 in1032.5 mb - 0.00 in0.0 mm 0.00 in0.0 mm
03:30 AM 19.1°F-7.2°C 13.3°F-10.4°C 78% 1.2 mph E1.9 kmh E 2.3 mph3.7 kmh 30.48 in1032.2 mb - 0.00 in0.0 mm 0.00 in0.0 mm
03:40 AM 18.8°F-7.3°C 12.5°F-10.8°C 76% Calm Calm -- 30.48 in1032.2 mb - 0.00 in0.0 mm 0.00 in0.0 mm
03:50 AM 18.2°F-7.7°C 13.1°F-10.5°C 80% 1.2 mph E1.9 kmh E 2.3 mph3.7 kmh 30.48 in1032.2 mb - 0.00 in0.0 mm 0.00 in0.0 mm
04:00 AM 18.0°F-7.8°C 13.4°F-10.3°C 82% 1.2 mph E1.9 kmh E 2.3 mph3.7 kmh 30.48 in1032.2 mb - 0.00 in0.0 mm 0.00 in0.0 mm
04:10 AM 18.0°F-7.8°C 12.9°F-10.6°C 80% 1.2 mph E1.9 kmh E 2.3 mph3.7 kmh 30.48 in1032.2 mb - 0.00 in0.0 mm 0.00 in0.0 mm
04:20 AM 18.0°F-7.8°C 12.9°F-10.6°C 80% 2.3 mph SW3.7 kmh SW 3.5 mph5.6 kmh 30.48 in1032.2 mb - 0.00 in0.0 mm 0.00 in0.0 mm
04:30 AM 19.0°F-7.2°C 13.0°F-10.6°C 77% Calm Calm 1.2 mph1.9 kmh 30.48 in1032.2 mb - 0.00 in0.0 mm 0.00 in0.0 mm
04:40 AM 18.5°F-7.5°C 12.8°F-10.7°C 78% Calm Calm 2.3 mph3.7 kmh 30.48 in1032.2 mb - 0.00 in0.0 mm 0.00 in0.0 mm
04:50 AM 17.8°F-7.9°C 12.4°F-10.9°C 79% Calm Calm -- 30.48 in1032.2 mb - 0.00 in0.0 mm 0.00 in0.0 mm
05:00 AM 17.3°F-8.2°C 12.5°F-10.8°C 81% Calm Calm 1.2 mph1.9 kmh 30.48 in1032.2 mb - 0.00 in0.0 mm 0.00 in0.0 mm
05:10 AM 17.3°F-8.2°C 13.3°F-10.4°C 84% 1.2 mph SW1.9 kmh SW 2.3 mph3.7 kmh 30.48 in1032.2 mb - 0.00 in0.0 mm 0.00 in0.0 mm
05:20 AM 17.5°F-8.1°C 13.5°F-10.3°C 84% 1.2 mph SW1.9 kmh SW 2.3 mph3.7 kmh 30.48 in1032.2 mb - 0.00 in0.0 mm 0.00 in0.0 mm
05:30 AM 17.4°F-8.1°C 13.7°F-10.2°C 85% 1.2 mph SW1.9 kmh SW 2.3 mph3.7 kmh 30.49 in1032.5 mb - 0.00 in0.0 mm 0.00 in0.0 mm
05:40 AM 17.3°F-8.2°C 13.3°F-10.4°C 84% 1.2 mph SW1.9 kmh SW 1.2 mph1.9 kmh 30.49 in1032.5 mb - 0.00 in0.0 mm 0.00 in0.0 mm
05:50 AM 17.3°F-8.2°C 13.3°F-10.4°C 84% 1.2 mph SW1.9 kmh SW 2.3 mph3.7 kmh 30.49 in1032.5 mb - 0.00 in0.0 mm 0.00 in0.0 mm
06:00 AM 17.1°F-8.3°C 13.3°F-10.4°C 85% 1.2 mph SW1.9 kmh SW 2.3 mph3.7 kmh 30.49 in1032.5 mb - 0.00 in0.0 mm 0.00 in0.0 mm
06:10 AM 17.1°F-8.3°C 13.4°F-10.3°C 85% 1.2 mph SW1.9 kmh SW 2.3 mph3.7 kmh 30.50 in1032.8 mb - 0.00 in0.0 mm 0.00 in0.0 mm
06:20 AM 17.1°F-8.3°C 12.6°F-10.8°C 82% Calm Calm -- 30.49 in1032.5 mb - 0.00 in0.0 mm 0.00 in0.0 mm
06:30 AM 16.9°F-8.4°C 12.6°F-10.8°C 83% Calm Calm -- 30.48 in1032.2 mb - 0.00 in0.0 mm 0.00 in0.0 mm
06:40 AM 16.7°F-8.5°C 12.7°F-10.7°C 84% 1.2 mph SW1.9 kmh SW 2.3 mph3.7 kmh 30.49 in1032.5 mb - 0.00 in0.0 mm 0.00 in0.0 mm
06:50 AM 16.7°F-8.5°C 13.0°F-10.6°C 85% 1.2 mph SW1.9 kmh SW 2.3 mph3.7 kmh 30.49 in1032.5 mb - 0.00 in0.0 mm 0.00 in0.0 mm
07:00 AM 16.5°F-8.6°C 12.5°F-10.8°C 84% 1.2 mph SW1.9 kmh SW 2.3 mph3.7 kmh 30.49 in1032.5 mb - 0.00 in0.0 mm 0.00 in0.0 mm
07:10 AM 16.4°F-8.7°C 12.4°F-10.9°C 84% Calm Calm 1.2 mph1.9 kmh 30.49 in1032.5 mb - 0.00 in0.0 mm 0.00 in0.0 mm
07:20 AM 16.4°F-8.7°C 11.9°F-11.2°C 82% Calm Calm -- 30.49 in1032.5 mb - 0.00 in0.0 mm 0.00 in0.0 mm
07:30 AM 16.3°F-8.7°C 12.0°F-11.1°C 83% Calm Calm -- 30.48 in1032.2 mb - 0.00 in0.0 mm 0.00 in0.0 mm
07:40 AM 16.8°F-8.4°C 13.1°F-10.5°C 85% 1.2 mph SW1.9 kmh SW 2.3 mph3.7 kmh 30.50 in1032.8 mb - 0.00 in0.0 mm 0.00 in0.0 mm
07:50 AM 18.0°F-7.8°C 13.7°F-10.2°C 83% 1.2 mph SW1.9 kmh SW 1.2 mph1.9 kmh 30.50 in1032.8 mb - 0.00 in0.0 mm 0.00 in0.0 mm
08:00 AM 19.2°F-7.1°C 14.9°F-9.5°C 83% Calm Calm -- 30.50 in1032.8 mb - 0.00 in0.0 mm 0.00 in0.0 mm
08:10 AM 20.6°F-6.3°C 15.1°F-9.4°C 79% Calm Calm -- 30.50 in1032.8 mb - 0.00 in0.0 mm 0.00 in0.0 mm
08:20 AM 22.9°F-5.1°C 13.2°F-10.4°C 66% Calm Calm -- 30.50 in1032.8 mb - 0.00 in0.0 mm 0.00 in0.0 mm
08:30 AM 24.2°F-4.3°C 10.7°F-11.8°C 56% 1.2 mph NNW1.9 kmh NNW 2.3 mph3.7 kmh 30.50 in1032.8 mb - 0.00 in0.0 mm 0.00 in0.0 mm
08:40 AM 24.4°F-4.2°C 9.7°F-12.4°C 53% 2.3 mph N3.7 kmh N 3.5 mph5.6 kmh 30.51 in1033.2 mb - 0.00 in0.0 mm 0.00 in0.0 mm
08:50 AM 24.8°F-4.0°C 8.8°F-12.9°C 50% 3.5 mph NE5.6 kmh NE 3.5 mph5.6 kmh 30.51 in1033.2 mb - 0.00 in0.0 mm 0.00 in0.0 mm
09:00 AM 25.2°F-3.8°C 9.2°F-12.7°C 50% 3.5 mph NE5.6 kmh NE 3.5 mph5.6 kmh 30.51 in1033.2 mb - 0.00 in0.0 mm 0.00 in0.0 mm
09:10 AM 25.8°F-3.4°C 6.9°F-13.9°C 44% 3.5 mph N5.6 kmh N 3.5 mph5.6 kmh 30.52 in1033.5 mb - 0.00 in0.0 mm 0.00 in0.0 mm
09:20 AM 26.8°F-2.9°C 6.7°F-14.1°C 42% 1.2 mph N1.9 kmh N 3.5 mph5.6 kmh 30.52 in1033.5 mb - 0.00 in0.0 mm 0.00 in0.0 mm
09:30 AM 26.9°F-2.8°C 5.2°F-14.9°C 39% 1.2 mph ENE1.9 kmh ENE 2.3 mph3.7 kmh 30.52 in1033.5 mb - 0.00 in0.0 mm 0.00 in0.0 mm
09:40 AM 26.8°F-2.9°C 6.2°F-14.3°C 41% Calm Calm 2.3 mph3.7 kmh 30.53 in1033.9 mb - 0.00 in0.0 mm 0.00 in0.0 mm
09:50 AM 27.1°F-2.7°C 5.4°F-14.8°C 39% 1.2 mph NE1.9 kmh NE 2.3 mph3.7 kmh 30.53 in1033.9 mb - 0.00 in0.0 mm 0.00 in0.0 mm
10:00 AM 27.6°F-2.4°C 5.8°F-14.6°C 39% 2.3 mph ESE3.7 kmh ESE 3.5 mph5.6 kmh 30.53 in1033.9 mb - 0.00 in0.0 mm 0.00 in0.0 mm
10:10 AM 28.5°F-1.9°C 6.6°F-14.1°C 39% 2.3 mph ESE3.7 kmh ESE 3.5 mph5.6 kmh 30.52 in1033.5 mb - 0.00 in0.0 mm 0.00 in0.0 mm
10:20 AM 27.9°F-2.3°C 3.7°F-15.7°C 35% Calm Calm -- 30.51 in1033.2 mb - 0.00 in0.0 mm 0.00 in0.0 mm
10:30 AM 28.5°F-1.9°C 6.7°F-14.1°C 39% 2.3 mph SE3.7 kmh SE 3.5 mph5.6 kmh 30.49 in1032.5 mb - 0.00 in0.0 mm 0.00 in0.0 mm
10:40 AM 29.1°F-1.6°C 6.0°F-14.4°C 37% 2.3 mph N3.7 kmh N 3.5 mph5.6 kmh 30.49 in1032.5 mb - 0.00 in0.0 mm 0.00 in0.0 mm
10:50 AM 29.5°F-1.4°C 5.8°F-14.6°C 36% 1.2 mph S1.9 kmh S 2.3 mph3.7 kmh 30.49 in1032.5 mb - 0.00 in0.0 mm 0.00 in0.0 mm
11:00 AM 28.8°F-1.8°C 4.6°F-15.2°C 35% Calm Calm -- 30.50 in1032.8 mb - 0.00 in0.0 mm 0.00 in0.0 mm
11:10 AM 30.8°F-0.7°C 7.6°F-13.6°C 37% 3.5 mph SSW5.6 kmh SSW 4.6 mph7.4 kmh 30.49 in1032.5 mb - 0.00 in0.0 mm 0.00 in0.0 mm
11:20 AM 30.1°F-1.1°C 5.0°F-15.0°C 34% 1.2 mph SE1.9 kmh SE 2.3 mph3.7 kmh 30.49 in1032.5 mb - 0.00 in0.0 mm 0.00 in0.0 mm
11:30 AM 29.8°F-1.2°C 5.4°F-14.8°C 35% 1.2 mph WSW1.9 kmh WSW 1.2 mph1.9 kmh 30.50 in1032.8 mb - 0.00 in0.0 mm 0.00 in0.0 mm
11:40 AM 30.0°F-1.1°C 5.6°F-14.7°C 35% 1.2 mph E1.9 kmh E 4.6 mph7.4 kmh 30.48 in1032.2 mb - 0.00 in0.0 mm 0.00 in0.0 mm
11:50 AM 32.1°F0.1°C 7.5°F-13.6°C 35% 3.5 mph NNE5.6 kmh NNE 5.8 mph9.3 kmh 30.48 in1032.2 mb - 0.00 in0.0 mm 0.00 in0.0 mm
12:00 PM 31.6°F-0.2°C 7.0°F-13.9°C 35% 1.2 mph ESE1.9 kmh ESE 4.6 mph7.4 kmh 30.48 in1032.2 mb - 0.00 in0.0 mm 0.00 in0.0 mm
12:10 PM 33.2°F0.7°C 9.7°F-12.4°C 37% 2.3 mph WSW3.7 kmh WSW 3.5 mph5.6 kmh 30.48 in1032.2 mb - 0.00 in0.0 mm 0.00 in0.0 mm
12:20 PM 32.3°F0.2°C 5.7°F-14.6°C 32% 3.5 mph SE5.6 kmh SE 6.9 mph11.1 kmh 30.48 in1032.2 mb - 0.00 in0.0 mm 0.00 in0.0 mm
12:30 PM 33.4°F0.8°C 5.9°F-14.5°C 31% 5.8 mph SW9.3 kmh SW 6.9 mph11.1 kmh 30.48 in1032.2 mb - 0.00 in0.0 mm 0.00 in0.0 mm
12:40 PM 32.3°F0.2°C 2.8°F-16.2°C 28% 1.2 mph NNE1.9 kmh NNE 3.5 mph5.6 kmh 30.48 in1032.2 mb - 0.00 in0.0 mm 0.00 in0.0 mm
12:50 PM 33.8°F1.0°C 6.3°F-14.3°C 31% 3.5 mph SW5.6 kmh SW 4.6 mph7.4 kmh 30.47 in1031.8 mb - 0.00 in0.0 mm 0.00 in0.0 mm
01:00 PM 34.3°F1.3°C 5.3°F-14.8°C 29% 6.9 mph SE11.1 kmh SE 8.1 mph13.0 kmh 30.47 in1031.8 mb - 0.00 in0.0 mm 0.00 in0.0 mm
01:10 PM 33.9°F1.1°C 5.7°F-14.6°C 30% 2.3 mph SE3.7 kmh SE 4.6 mph7.4 kmh 30.46 in1031.5 mb - 0.00 in0.0 mm 0.00 in0.0 mm
01:20 PM 35.2°F1.8°C 8.3°F-13.2°C 32% 3.5 mph WNW5.6 kmh WNW 4.6 mph7.4 kmh 30.46 in1031.5 mb - 0.00 in0.0 mm 0.00 in0.0 mm
01:30 PM 34.6°F1.4°C 5.5°F-14.7°C 29% Calm Calm 2.3 mph3.7 kmh 30.45 in1031.2 mb - 0.00 in0.0 mm 0.00 in0.0 mm
01:40 PM 34.7°F1.5°C 7.8°F-13.4°C 32% 2.3 mph W3.7 kmh W 6.9 mph11.1 kmh 30.44 in1030.8 mb - 0.00 in0.0 mm 0.00 in0.0 mm
01:50 PM 35.7°F2.1°C 11.9°F-11.2°C 37% 4.6 mph S7.4 kmh S 6.9 mph11.1 kmh 30.44 in1030.8 mb - 0.00 in0.0 mm 0.00 in0.0 mm
02:00 PM 35.1°F1.7°C 7.5°F-13.6°C 31% 2.3 mph SSE3.7 kmh SSE 3.5 mph5.6 kmh 30.43 in1030.5 mb - 0.00 in0.0 mm 0.00 in0.0 mm
02:10 PM 36.1°F2.3°C 10.4°F-12.0°C 34% 2.3 mph S3.7 kmh S 3.5 mph5.6 kmh 30.42 in1030.1 mb - 0.00 in0.0 mm 0.00 in0.0 mm
02:20 PM 35.8°F2.1°C 8.8°F-12.9°C 32% 3.5 mph SE5.6 kmh SE 8.1 mph13.0 kmh 30.41 in1029.8 mb - 0.00 in0.0 mm 0.00 in0.0 mm
02:30 PM 35.1°F1.7°C 6.7°F-14.1°C 30% 1.2 mph SW1.9 kmh SW 2.3 mph3.7 kmh 30.41 in1029.8 mb - 0.00 in0.0 mm 0.00 in0.0 mm
02:40 PM 36.2°F2.3°C 10.4°F-12.0°C 34% 5.8 mph ESE9.3 kmh ESE 9.2 mph14.8 kmh 30.41 in1029.8 mb - 0.00 in0.0 mm 0.00 in0.0 mm
02:50 PM 36.3°F2.4°C 10.5°F-11.9°C 34% 4.6 mph ESE7.4 kmh ESE 5.8 mph9.3 kmh 30.40 in1029.5 mb - 0.00 in0.0 mm 0.00 in0.0 mm
03:00 PM 36.6°F2.6°C 10.2°F-12.1°C 33% 3.5 mph SSE5.6 kmh SSE 3.5 mph5.6 kmh 30.40 in1029.5 mb - 0.00 in0.0 mm 0.00 in0.0 mm
03:10 PM 36.1°F2.3°C 9.0°F-12.8°C 32% 1.2 mph S1.9 kmh S 4.6 mph7.4 kmh 30.40 in1029.5 mb - 0.00 in0.0 mm 0.00 in0.0 mm
03:20 PM 36.5°F2.5°C 10.8°F-11.8°C 34% 1.2 mph SW1.9 kmh SW 4.6 mph7.4 kmh 30.39 in1029.1 mb - 0.00 in0.0 mm 0.00 in0.0 mm
03:30 PM 36.4°F2.4°C 10.0°F-12.2°C 33% 4.6 mph S7.4 kmh S 8.1 mph13.0 kmh 30.39 in1029.1 mb - 0.00 in0.0 mm 0.00 in0.0 mm
03:40 PM 36.3°F2.4°C 9.9°F-12.3°C 33% 5.8 mph SSW9.3 kmh SSW 5.8 mph9.3 kmh 30.38 in1028.8 mb - 0.00 in0.0 mm 0.00 in0.0 mm
03:50 PM 35.7°F2.1°C 9.4°F-12.6°C 33% 2.3 mph WSW3.7 kmh WSW 3.5 mph5.6 kmh 30.37 in1028.4 mb - 0.00 in0.0 mm 0.00 in0.0 mm
04:00 PM 36.7°F2.6°C 12.2°F-11.0°C 36% 2.3 mph S3.7 kmh S 3.5 mph5.6 kmh 30.37 in1028.4 mb - 0.00 in0.0 mm 0.00 in0.0 mm
04:10 PM 36.2°F2.3°C 9.1°F-12.7°C 32% 2.3 mph S3.7 kmh S 8.1 mph13.0 kmh 30.36 in1028.1 mb - 0.00 in0.0 mm 0.00 in0.0 mm
04:20 PM 36.2°F2.3°C 9.1°F-12.7°C 32% 3.5 mph SSW5.6 kmh SSW 4.6 mph7.4 kmh 30.36 in1028.1 mb - 0.00 in0.0 mm 0.00 in0.0 mm
04:30 PM 36.5°F2.5°C 12.1°F-11.1°C 36% 3.5 mph S5.6 kmh S 6.9 mph11.1 kmh 30.35 in1027.8 mb - 0.00 in0.0 mm 0.00 in0.0 mm
04:40 PM 36.1°F2.3°C 10.4°F-12.0°C 34% 1.2 mph S1.9 kmh S 4.6 mph7.4 kmh 30.35 in1027.8 mb - 0.00 in0.0 mm 0.00 in0.0 mm
04:50 PM 36.4°F2.4°C 10.7°F-11.8°C 34% 2.3 mph ESE3.7 kmh ESE 2.3 mph3.7 kmh 30.35 in1027.8 mb - 0.00 in0.0 mm 0.00 in0.0 mm
05:00 PM 36.7°F2.6°C 12.8°F-10.7°C 37% 3.5 mph SSW5.6 kmh SSW 6.9 mph11.1 kmh 30.34 in1027.4 mb - 0.00 in0.0 mm 0.00 in0.0 mm
05:10 PM 36.7°F2.6°C 12.8°F-10.7°C 37% 8.1 mph SE13.0 kmh SE 11.5 mph18.5 kmh 30.33 in1027.1 mb - 0.00 in0.0 mm 0.00 in0.0 mm
05:20 PM 36.3°F2.4°C 12.5°F-10.8°C 37% 2.3 mph S3.7 kmh S 5.8 mph9.3 kmh 30.33 in1027.1 mb - 0.00 in0.0 mm 0.00 in0.0 mm
05:30 PM 36.0°F2.2°C 12.2°F-11.0°C 37% 3.5 mph SSE5.6 kmh SSE 6.9 mph11.1 kmh 30.33 in1027.1 mb - 0.00 in0.0 mm 0.00 in0.0 mm
05:40 PM 35.9°F2.2°C 12.2°F-11.0°C 37% 4.6 mph SSE7.4 kmh SSE 5.8 mph9.3 kmh 30.33 in1027.1 mb - 0.00 in0.0 mm 0.00 in0.0 mm
05:50 PM 35.7°F2.1°C 12.5°F-10.8°C 38% 3.5 mph S5.6 kmh S 5.8 mph9.3 kmh 30.32 in1026.8 mb - 0.00 in0.0 mm 0.00 in0.0 mm
06:00 PM 35.6°F2.0°C 12.5°F-10.8°C 38% 6.9 mph SE11.1 kmh SE 11.5 mph18.5 kmh 30.32 in1026.8 mb - 0.00 in0.0 mm 0.00 in0.0 mm
06:10 PM 35.5°F1.9°C 12.4°F-10.9°C 38% 9.2 mph SE14.8 kmh SE 11.5 mph18.5 kmh 30.31 in1026.4 mb - 0.00 in0.0 mm 0.00 in0.0 mm
06:20 PM 35.3°F1.8°C 12.2°F-11.0°C 38% 10.4 mph SE16.7 kmh SE 11.5 mph18.5 kmh 30.30 in1026.1 mb - 0.00 in0.0 mm 0.00 in0.0 mm
06:30 PM 35.1°F1.7°C 12.0°F-11.1°C 38% 9.2 mph SE14.8 kmh SE 9.2 mph14.8 kmh 30.30 in1026.1 mb - 0.00 in0.0 mm 0.00 in0.0 mm
06:40 PM 34.8°F1.6°C 12.9°F-10.6°C 40% 4.6 mph SE7.4 kmh SE 5.8 mph9.3 kmh 30.31 in1026.4 mb - 0.00 in0.0 mm 0.00 in0.0 mm
06:50 PM 34.6°F1.4°C 12.1°F-11.1°C 39% 4.6 mph SE7.4 kmh SE 6.9 mph11.1 kmh 30.31 in1026.4 mb - 0.00 in0.0 mm 0.00 in0.0 mm
07:00 PM 34.5°F1.4°C 12.6°F-10.8°C 40% 5.8 mph ESE9.3 kmh ESE 8.1 mph13.0 kmh 30.31 in1026.4 mb - 0.00 in0.0 mm 0.00 in0.0 mm
07:10 PM 34.3°F1.3°C 11.9°F-11.2°C 39% 4.6 mph SE7.4 kmh SE 5.8 mph9.3 kmh 30.32 in1026.8 mb - 0.00 in0.0 mm 0.00 in0.0 mm
07:20 PM 34.2°F1.2°C 13.4°F-10.3°C 42% 2.3 mph SE3.7 kmh SE 3.5 mph5.6 kmh 30.32 in1026.8 mb - 0.00 in0.0 mm 0.00 in0.0 mm
07:30 PM 34.2°F1.2°C 14.0°F-10.0°C 43% 5.8 mph SE9.3 kmh SE 6.9 mph11.1 kmh 30.32 in1026.8 mb - 0.00 in0.0 mm 0.00 in0.0 mm
07:40 PM 34.2°F1.2°C 14.5°F-9.7°C 44% 2.3 mph SE3.7 kmh SE 3.5 mph5.6 kmh 30.31 in1026.4 mb - 0.00 in0.0 mm 0.00 in0.0 mm
07:50 PM 34.1°F1.2°C 13.4°F-10.3°C 42% 3.5 mph SE5.6 kmh SE 4.6 mph7.4 kmh 30.31 in1026.4 mb - 0.00 in0.0 mm 0.00 in0.0 mm
08:00 PM 34.1°F1.2°C 14.4°F-9.8°C 44% 3.5 mph SE5.6 kmh SE 6.9 mph11.1 kmh 30.32 in1026.8 mb - 0.00 in0.0 mm 0.00 in0.0 mm
08:10 PM 34.0°F1.1°C 14.4°F-9.8°C 44% 4.6 mph SE7.4 kmh SE 4.6 mph7.4 kmh 30.31 in1026.4 mb - 0.00 in0.0 mm 0.00 in0.0 mm
08:20 PM 34.0°F1.1°C 15.4°F-9.2°C 46% 4.6 mph SE7.4 kmh SE 6.9 mph11.1 kmh 30.31 in1026.4 mb - 0.00 in0.0 mm 0.00 in0.0 mm
08:30 PM 33.8°F1.0°C 15.2°F-9.3°C 46% 2.3 mph SE3.7 kmh SE 3.5 mph5.6 kmh 30.31 in1026.4 mb - 0.00 in0.0 mm 0.00 in0.0 mm
08:40 PM 33.8°F1.0°C 15.2°F-9.3°C 46% 4.6 mph SE7.4 kmh SE 8.1 mph13.0 kmh 30.32 in1026.8 mb - 0.00 in0.0 mm 0.00 in0.0 mm
08:50 PM 33.8°F1.0°C 14.2°F-9.9°C 44% 3.5 mph SE5.6 kmh SE 4.6 mph7.4 kmh 30.32 in1026.8 mb - 0.00 in0.0 mm 0.00 in0.0 mm
09:00 PM 33.7°F0.9°C 14.6°F-9.7°C 45% 4.6 mph ESE7.4 kmh ESE 4.6 mph7.4 kmh 30.32 in1026.8 mb - 0.00 in0.0 mm 0.00 in0.0 mm
09:10 PM 33.6°F0.9°C 15.0°F-9.4°C 46% 5.8 mph SE9.3 kmh SE 6.9 mph11.1 kmh 30.32 in1026.8 mb - 0.00 in0.0 mm 0.00 in0.0 mm
09:20 PM 33.6°F0.9°C 14.5°F-9.7°C 45% 6.9 mph SE11.1 kmh SE 10.4 mph16.7 kmh 30.31 in1026.4 mb - 0.00 in0.0 mm 0.00 in0.0 mm
09:30 PM 33.6°F0.9°C 15.0°F-9.4°C 46% 8.1 mph SE13.0 kmh SE 9.2 mph14.8 kmh 30.30 in1026.1 mb - 0.00 in0.0 mm 0.00 in0.0 mm
09:40 PM 33.6°F0.9°C 15.0°F-9.4°C 46% 8.1 mph SE13.0 kmh SE 10.4 mph16.7 kmh 30.29 in1025.7 mb - 0.00 in0.0 mm 0.00 in0.0 mm
09:50 PM 33.5°F0.8°C 15.9°F-8.9°C 48% 3.5 mph SE5.6 kmh SE 3.5 mph5.6 kmh 30.30 in1026.1 mb - 0.00 in0.0 mm 0.00 in0.0 mm
10:00 PM 33.5°F0.8°C 15.9°F-8.9°C 48% 3.5 mph SSE5.6 kmh SSE 3.5 mph5.6 kmh 30.30 in1026.1 mb - 0.00 in0.0 mm 0.00 in0.0 mm
10:10 PM 33.5°F0.8°C 15.9°F-8.9°C 48% 4.6 mph SE7.4 kmh SE 6.9 mph11.1 kmh 30.31 in1026.4 mb - 0.00 in0.0 mm 0.00 in0.0 mm
10:20 PM 33.5°F0.8°C 16.8°F-8.4°C 50% 3.5 mph SE5.6 kmh SE 4.6 mph7.4 kmh 30.31 in1026.4 mb - 0.00 in0.0 mm 0.00 in0.0 mm
10:30 PM 33.5°F0.8°C 16.4°F-8.7°C 49% 3.5 mph SE5.6 kmh SE 4.6 mph7.4 kmh 30.31 in1026.4 mb - 0.00 in0.0 mm 0.00 in0.0 mm
10:40 PM 33.5°F0.8°C 16.8°F-8.4°C 50% 3.5 mph SE5.6 kmh SE 6.9 mph11.1 kmh 30.31 in1026.4 mb - 0.00 in0.0 mm 0.00 in0.0 mm
10:50 PM 33.5°F0.8°C 16.8°F-8.4°C 50% 4.6 mph SE7.4 kmh SE 11.5 mph18.5 kmh 30.30 in1026.1 mb - 0.00 in0.0 mm 0.00 in0.0 mm
11:00 PM 33.4°F0.8°C 17.2°F-8.2°C 51% 6.9 mph SE11.1 kmh SE 6.9 mph11.1 kmh 30.30 in1026.1 mb - 0.00 in0.0 mm 0.00 in0.0 mm
11:10 PM 33.2°F0.7°C 17.5°F-8.1°C 52% 3.5 mph SSE5.6 kmh SSE 4.6 mph7.4 kmh 30.30 in1026.1 mb - 0.00 in0.0 mm 0.00 in0.0 mm
11:20 PM 33.1°F0.6°C 17.4°F-8.1°C 52% 5.8 mph SE9.3 kmh SE 8.1 mph13.0 kmh 30.29 in1025.7 mb - 0.00 in0.0 mm 0.00 in0.0 mm
11:30 PM 33.0°F0.6°C 17.3°F-8.2°C 52% 5.8 mph SE9.3 kmh SE 9.2 mph14.8 kmh 30.28 in1025.4 mb - 0.00 in0.0 mm 0.00 in0.0 mm
11:40 PM 33.0°F0.6°C 17.2°F-8.2°C 52% 10.4 mph SE16.7 kmh SE 11.5 mph18.5 kmh 30.28 in1025.4 mb - 0.00 in0.0 mm 0.00 in0.0 mm
11:50 PM 32.8°F0.4°C 17.1°F-8.3°C 52% 9.2 mph ESE14.8 kmh ESE 11.5 mph18.5 kmh 30.27 in1025.1 mb - 0.00 in0.0 mm 0.00 in0.0 mm